Time;durP1;ratioP1;P1;durP2;ratioP2;P2;SDS_P1;SDS_P2;PMS_P1;PMS_P2;Temp;Humidity;BMP_temperature;BMP_pressure;BME280_temperature;BME280_humidity;BME280_pressure;Samples;Min_cycle;Max_cycle;Signal;HPM_P1;HPM_P2
2023/03/15 00:02:02;;;;;;;10.13;2.83;;;1.60;99.90;;;;;;5140241;27;20087;-83
2023/03/15 00:04:27;;;;;;;9.90;2.75;;;1.60;99.90;;;;;;5139939;27;20039;-83
2023/03/15 00:06:53;;;;;;;8.60;2.20;;;1.60;99.90;;;;;;5158508;27;20394;-83
2023/03/15 00:09:21;;;;;;;5.38;2.17;;;1.50;99.90;;;;;;5158661;27;20126;-83
2023/03/15 00:11:47;;;;;;;;;;;2.20;99.90;;;;;;5140271;27;20042;-83
2023/03/15 00:14:12;;;;;;;6.97;2.53;;;2.40;99.90;;;;;;5122953;27;20323;-83
2023/03/15 00:16:38;;;;;;;12.65;3.40;;;1.50;99.90;;;;;;5139729;27;20095;-83
2023/03/15 00:19:04;;;;;;;11.07;2.83;;;1.50;99.90;;;;;;5158271;27;20046;-82
2023/03/15 00:21:29;;;;;;;7.13;3.20;;;1.50;99.90;;;;;;5139901;27;20043;-82
2023/03/15 00:23:56;;;;;;;10.13;2.78;;;1.50;99.90;;;;;;5122440;27;20042;-83
2023/03/15 00:26:21;;;;;;;8.47;3.17;;;1.50;99.90;;;;;;5139151;27;20553;-82
2023/03/15 00:28:47;;;;;;;7.35;2.67;;;1.50;99.90;;;;;;5139441;27;20292;-83
2023/03/15 00:31:19;;;;;;;6.97;2.72;;;1.50;99.90;;;;;;5139705;27;20478;-83
2023/03/15 00:33:45;;;;;;;5.07;2.70;;;2.30;99.90;;;;;;5139408;27;20053;-83
2023/03/15 00:36:11;;;;;;;9.38;2.70;;;1.60;99.90;;;;;;5157499;27;20505;-83
2023/03/15 00:38:39;;;;;;;9.80;3.07;;;2.40;99.90;;;;;;5139277;27;20061;-83
2023/03/15 00:41:14;;;;;;;6.50;3.13;;;1.60;99.90;;;;;;5139594;27;20038;-83
2023/03/15 00:43:40;;;;;;;5.85;2.60;;;1.70;99.90;;;;;;5122442;27;20091;-83
2023/03/15 00:46:06;;;;;;;6.80;4.07;;;1.60;99.90;;;;;;5157680;27;20123;-83
2023/03/15 00:48:34;;;;;;;11.73;3.13;;;1.60;99.90;;;;;;5121956;27;20050;-83
2023/03/15 00:51:05;;;;;;;6.93;2.63;;;1.60;99.90;;;;;;5139013;27;20066;-83
2023/03/15 00:53:31;;;;;;;4.85;2.90;;;1.50;99.90;;;;;;5139516;27;20478;-82
2023/03/15 00:55:57;;;;;;;9.80;3.23;;;1.50;99.90;;;;;;5157375;27;20121;-83
2023/03/15 00:58:23;;;;;;;4.45;2.90;;;1.50;99.90;;;;;;5139269;27;20318;-83
2023/03/15 01:00:48;;;;;;;6.30;3.17;;;1.50;99.90;;;;;;5139140;27;20138;-83
2023/03/15 01:03:14;;;;;;;5.30;3.13;;;1.60;99.90;;;;;;5138965;27;20465;-83
2023/03/15 01:05:40;;;;;;;5.28;2.63;;;1.40;99.90;;;;;;5138980;27;20159;-83
2023/03/15 01:08:05;;;;;;;4.93;2.60;;;1.40;99.90;;;;;;5157114;27;20065;-83
2023/03/15 01:10:34;;;;;;;4.97;2.45;;;1.50;99.90;;;;;;5157114;27;20042;-83
2023/03/15 01:13:00;;;;;;;8.00;2.70;;;2.10;99.90;;;;;;5138558;27;20039;-83
2023/03/15 01:15:25;;;;;;;11.90;2.10;;;1.50;99.90;;;;;;5138536;27;20049;-83
2023/03/15 01:17:51;;;;;;;6.32;2.60;;;1.50;99.90;;;;;;5156970;27;20042;-83
2023/03/15 01:20:17;;;;;;;5.78;2.30;;;1.80;99.90;;;;;;5121555;27;20042;-83
2023/03/15 01:22:43;;;;;;;2.47;1.95;;;1.50;99.90;;;;;;5122050;27;20043;-83
2023/03/15 01:25:09;;;;;;;5.82;1.90;;;1.50;99.90;;;;;;5156563;27;20072;-83
2023/03/15 01:27:34;;;;;;;7.43;2.33;;;1.50;99.90;;;;;;5156958;27;20096;-82
2023/03/15 01:30:00;;;;;;;5.10;2.00;;;1.50;99.90;;;;;;5156700;27;20774;-82
2023/03/15 01:32:26;;;;;;;4.75;1.90;;;2.30;99.90;;;;;;5138416;27;20100;-83
2023/03/15 01:34:51;;;;;;;6.13;1.70;;;1.50;99.90;;;;;;5156677;27;20049;-83
2023/03/15 01:37:17;;;;;;;5.55;1.77;;;1.70;99.90;;;;;;5156777;27;20039;-83
2023/03/15 01:39:43;;;;;;;3.13;1.67;;;1.70;99.90;;;;;;5137882;27;20043;-83
2023/03/15 01:42:09;;;;;;;2.45;1.55;;;1.70;99.90;;;;;;5138632;27;20363;-83
2023/03/15 01:44:55;;;;;;;3.20;1.90;;;1.70;99.90;;;;;;5138012;27;20083;-83
2023/03/15 01:47:24;;;;;;;4.03;1.55;;;1.80;99.90;;;;;;5156923;27;20066;-82
2023/03/15 01:50:07;;;;;;;7.22;1.90;;;1.70;99.90;;;;;;5156029;27;20043;-82
2023/03/15 01:52:36;;;;;;;3.95;1.50;;;2.70;99.90;;;;;;5138099;27;20061;-82
2023/03/15 01:55:18;;;;;;;5.25;1.95;;;1.60;99.90;;;;;;5156347;27;20406;-82
2023/03/15 01:57:54;;;;;;;6.82;1.60;;;2.00;99.90;;;;;;5156259;27;20474;-82
2023/03/15 02:00:22;;;;;;;5.47;1.52;;;1.60;99.90;;;;;;5138261;27;20051;-83
2023/03/15 02:02:51;;;;;;;;;;;1.60;99.90;;;;;;5156937;27;20043;-83
2023/03/15 02:05:27;;;;;;;6.70;1.58;;;1.50;99.90;;;;;;5138000;27;19973;-82
2023/03/15 02:07:54;;;;;;;3.78;1.88;;;1.50;99.90;;;;;;5137888;27;20047;-82
2023/03/15 02:10:34;;;;;;;4.40;1.70;;;1.50;99.90;;;;;;5137714;27;20118;-82
2023/03/15 02:13:00;;;;;;;3.25;1.92;;;1.40;99.90;;;;;;5156102;27;20046;-82
2023/03/15 02:15:26;;;;;;;5.25;1.70;;;1.40;99.90;;;;;;5137575;27;20401;-82
2023/03/15 02:17:52;;;;;;;3.22;1.60;;;1.30;99.90;;;;;;5155895;27;20046;-82
2023/03/15 02:20:33;;;;;;;3.47;1.48;;;1.30;99.90;;;;;;5155930;27;20041;-82
2023/03/15 02:23:10;;;;;;;2.75;1.70;;;1.30;99.90;;;;;;5155726;27;20053;-82
2023/03/15 02:26:03;;;;;;;7.00;1.90;;;1.30;99.90;;;;;;5155914;27;20035;-83
2023/03/15 02:28:29;;;;;;;3.70;1.83;;;1.30;99.90;;;;;;5137587;27;20129;-82
2023/03/15 02:30:56;;;;;;;5.22;2.00;;;1.30;99.90;;;;;;5155602;27;20079;-82
2023/03/15 02:33:23;;;;;;;5.38;1.60;;;1.30;99.90;;;;;;5138154;27;20050;-82
2023/03/15 02:35:50;;;;;;;6.72;1.80;;;1.30;99.90;;;;;;5155612;27;20054;-82
2023/03/15 02:38:16;;;;;;;4.47;1.70;;;1.30;99.90;;;;;;5155630;27;20038;-82
2023/03/15 02:40:44;;;;;;;4.97;1.63;;;1.60;99.90;;;;;;5155606;27;20162;-83
2023/03/15 02:43:17;;;;;;;3.60;1.90;;;1.30;99.90;;;;;;5137437;27;20046;-83
2023/03/15 02:45:43;;;;;;;4.82;1.85;;;1.30;99.90;;;;;;5137266;27;20485;-82
2023/03/15 02:48:10;;;;;;;2.95;1.50;;;1.40;99.90;;;;;;5137100;27;20050;-82
2023/03/15 02:50:36;;;;;;;7.82;1.88;;;1.40;99.90;;;;;;5136474;27;20095;-82
2023/03/15 02:53:02;;;;;;;8.52;1.77;;;1.30;99.90;;;;;;5155655;27;20482;-82
2023/03/15 02:55:28;;;;;;;7.10;1.73;;;;;;;;;;5155381;27;20478;-82
2023/03/15 02:57:54;;;;;;;6.70;1.63;;;1.20;99.90;;;;;;5136976;27;20039;-82
2023/03/15 03:00:20;;;;;;;6.78;1.63;;;1.30;99.90;;;;;;5119868;27;20049;-82
2023/03/15 03:02:47;;;;;;;6.18;1.63;;;1.20;99.90;;;;;;5155284;27;20050;-82
2023/03/15 03:05:14;;;;;;;6.65;1.60;;;1.90;99.90;;;;;;5136913;27;20043;-81
2023/03/15 03:07:43;;;;;;;4.97;1.50;;;1.10;99.90;;;;;;5137286;27;20054;-82
2023/03/15 03:10:11;;;;;;;6.18;1.63;;;1.60;99.90;;;;;;5137028;27;20428;-82
2023/03/15 03:12:36;;;;;;;2.50;1.60;;;1.10;99.90;;;;;;5155146;27;20095;-82
2023/03/15 03:15:03;;;;;;;6.78;1.80;;;1.30;99.90;;;;;;5137576;27;20451;-81
2023/03/15 03:17:29;;;;;;;5.28;1.67;;;1.00;99.90;;;;;;5136977;27;20042;-81
2023/03/15 03:19:55;;;;;;;9.07;2.58;;;0.90;99.90;;;;;;5119574;27;20103;-81
2023/03/15 03:22:23;;;;;;;5.55;1.88;;;0.90;99.90;;;;;;5136981;27;20043;-81
2023/03/15 03:24:50;;;;;;;6.45;1.70;;;0.90;99.90;;;;;;5155141;27;20042;-81
2023/03/15 03:27:15;;;;;;;5.75;1.75;;;1.00;99.90;;;;;;5155415;27;20086;-82
2023/03/15 03:29:41;;;;;;;12.20;2.03;;;0.90;99.90;;;;;;5136828;27;20089;-81
2023/03/15 03:32:07;;;;;;;5.85;1.83;;;0.90;99.90;;;;;;5155461;27;20047;-81
2023/03/15 03:34:33;;;;;;;4.40;1.50;;;0.90;99.90;;;;;;5120072;27;20125;-81
2023/03/15 03:36:59;;;;;;;9.57;2.10;;;0.90;99.90;;;;;;5155349;27;20078;-81
2023/03/15 03:39:25;;;;;;;7.72;1.80;;;0.90;99.90;;;;;;5136846;27;20088;-81
2023/03/15 03:41:50;;;;;;;7.30;1.50;;;0.90;99.90;;;;;;5155035;27;20469;-81
2023/03/15 03:44:17;;;;;;;10.57;1.67;;;0.70;99.90;;;;;;5119327;27;20039;-81
2023/03/15 03:46:43;;;;;;;5.78;1.67;;;0.70;99.90;;;;;;5136705;27;20042;-81
2023/03/15 03:49:08;;;;;;;9.77;1.90;;;0.70;99.90;;;;;;5136837;27;20534;-82
2023/03/15 03:51:35;;;;;;;7.05;1.95;;;0.90;99.90;;;;;;5132821;27;20089;-81
2023/03/15 03:54:01;;;;;;;9.65;1.80;;;0.60;99.90;;;;;;5116247;28;20422;-81
2023/03/15 03:56:27;;;;;;;10.10;2.53;;;0.60;99.90;;;;;;5134303;27;20131;-81
2023/03/15 03:58:52;;;;;;;4.93;1.60;;;0.50;99.90;;;;;;5133941;28;20791;-81
2023/03/15 04:01:18;;;;;;;10.75;2.17;;;0.50;99.90;;;;;;5135349;27;20072;-80
2023/03/15 04:03:44;;;;;;;7.00;1.83;;;0.50;99.90;;;;;;5137766;27;20043;-82
2023/03/15 04:06:09;;;;;;;6.32;1.67;;;0.40;99.90;;;;;;5137784;27;20489;-81
2023/03/15 04:08:35;;;;;;;5.75;1.75;;;0.60;99.90;;;;;;5137628;27;20047;-81
2023/03/15 04:11:03;;;;;;;5.38;1.55;;;0.40;99.90;;;;;;5136565;27;20138;-81
2023/03/15 04:13:30;;;;;;;5.93;2.05;;;0.30;99.90;;;;;;5136613;27;20035;-81
2023/03/15 04:15:56;;;;;;;11.32;1.80;;;0.30;99.90;;;;;;5137576;27;20388;-81
2023/03/15 04:18:22;;;;;;;5.72;1.90;;;0.30;99.90;;;;;;5137338;27;20043;-81
2023/03/15 04:20:48;;;;;;;4.30;1.80;;;0.30;99.90;;;;;;5137404;27;20095;-81
2023/03/15 04:23:15;;;;;;;4.82;1.80;;;0.30;99.90;;;;;;5137348;27;20035;-81
2023/03/15 04:25:41;;;;;;;;;;;0.30;99.90;;;;;;5137847;27;20550;-80
2023/03/15 04:28:10;;;;;;;5.10;1.88;;;0.40;99.90;;;;;;5136195;27;19965;-81
2023/03/15 04:30:36;;;;;;;6.88;1.60;;;0.30;99.90;;;;;;5119718;27;20043;-81
2023/03/15 04:33:03;;;;;;;6.68;1.55;;;0.20;99.90;;;;;;5136268;27;20039;-80
2023/03/15 04:35:32;;;;;;;6.55;1.70;;;0.40;99.90;;;;;;5137177;27;20600;-81
2023/03/15 04:37:57;;;;;;;5.97;1.80;;;1.90;99.90;;;;;;5136145;27;20097;-80
2023/03/15 04:40:23;;;;;;;6.05;1.60;;;0.40;99.90;;;;;;5135853;27;20474;-81
2023/03/15 04:42:51;;;;;;;5.00;1.67;;;0.50;99.90;;;;;;5118656;27;20051;-81
2023/03/15 04:45:17;;;;;;;3.78;1.50;;;0.90;99.90;;;;;;5136238;27;20082;-81
2023/03/15 04:47:43;;;;;;;14.82;2.28;;;0.30;99.90;;;;;;5136004;27;20375;-80
2023/03/15 04:50:09;;;;;;;6.55;1.73;;;0.50;99.90;;;;;;5140988;27;20061;-81
2023/03/15 04:52:35;;;;;;;2.53;1.60;;;0.50;99.90;;;;;;5139092;27;20046;-81
2023/03/15 04:55:00;;;;;;;6.85;1.65;;;3.10;99.90;;;;;;5157557;27;20424;-81
2023/03/15 04:57:26;;;;;;;4.18;1.42;;;0.60;99.90;;;;;;5157476;27;20046;-81
2023/03/15 04:59:51;;;;;;;6.38;1.70;;;0.50;99.90;;;;;;5157395;27;20035;-81
2023/03/15 05:02:17;;;;;;;10.35;2.00;;;2.40;99.90;;;;;;5157355;27;20431;-81
2023/03/15 05:04:43;;;;;;;8.70;1.95;;;0.50;99.90;;;;;;5157124;27;20152;-81
2023/03/15 05:07:08;;;;;;;4.70;1.60;;;0.40;99.90;;;;;;5157262;27;20063;-82
2023/03/15 05:09:37;;;;;;;3.92;1.45;;;0.40;99.90;;;;;;5138852;27;20043;-82
2023/03/15 05:12:06;;;;;;;6.43;2.03;;;0.30;99.90;;;;;;5138426;27;20080;-81
2023/03/15 05:14:32;;;;;;;6.30;1.60;;;0.30;99.90;;;;;;5157139;27;20042;-81
2023/03/15 05:16:58;;;;;;;8.70;1.60;;;0.20;99.90;;;;;;5156875;27;20041;-81
2023/03/15 05:19:27;;;;;;;7.70;1.70;;;0.60;99.90;;;;;;5138644;27;20087;-82
2023/03/15 05:21:56;;;;;;;10.05;1.58;;;0.00;99.90;;;;;;5156960;27;20098;-81
2023/03/15 05:24:22;;;;;;;7.32;1.77;;;0.00;99.90;;;;;;5156796;27;20504;-82
2023/03/15 05:26:47;;;;;;;5.07;1.60;;;-0.10;99.90;;;;;;5156881;27;20047;-82
2023/03/15 05:29:13;;;;;;;5.63;1.52;;;-0.30;99.90;;;;;;5138426;27;20038;-81
2023/03/15 05:31:39;;;;;;;8.48;1.67;;;-0.20;99.90;;;;;;5156488;27;20068;-81
2023/03/15 05:34:06;;;;;;;5.50;1.75;;;-0.10;99.90;;;;;;5121433;27;20049;-81
2023/03/15 05:36:32;;;;;;;4.20;1.65;;;0.70;99.90;;;;;;5121107;27;20058;-81
2023/03/15 05:38:58;;;;;;;3.50;1.42;;;-0.20;99.90;;;;;;5138567;27;20093;-81
2023/03/15 05:41:24;;;;;;;2.60;1.50;;;-0.30;99.90;;;;;;5138411;27;20082;-81
2023/03/15 05:43:50;;;;;;;8.93;1.52;;;-0.20;99.90;;;;;;5156493;27;20486;-82
2023/03/15 05:46:16;;;;;;;8.00;1.80;;;-0.20;99.90;;;;;;5138453;27;20129;-81
2023/03/15 05:48:42;;;;;;;6.15;1.52;;;-0.20;99.90;;;;;;5156409;27;20129;-82
2023/03/15 05:51:08;;;;;;;2.75;1.33;;;;;;;;;;5120532;27;20054;-81
2023/03/15 05:53:34;;;;;;;7.85;1.55;;;-0.30;99.90;;;;;;5120834;27;20049;-82
2023/03/15 05:56:00;;;;;;;3.25;1.65;;;0.20;99.90;;;;;;5137939;27;20038;-82
2023/03/15 05:58:26;;;;;;;4.78;1.67;;;-0.10;99.90;;;;;;5138007;27;20057;-82
2023/03/15 06:00:51;;;;;;;8.25;1.70;;;0.70;99.90;;;;;;5156564;27;20513;-82
2023/03/15 06:03:17;;;;;;;5.80;1.48;;;0.80;99.90;;;;;;5120809;27;20046;-81
2023/03/15 06:05:43;;;;;;;7.90;2.10;;;0.00;99.90;;;;;;5120571;27;20071;-81
2023/03/15 06:08:08;;;;;;;6.50;1.77;;;0.00;99.90;;;;;;5156037;27;20098;-81
2023/03/15 06:10:34;;;;;;;5.70;1.75;;;-0.10;99.90;;;;;;5155905;27;20047;-82
2023/03/15 06:13:00;;;;;;;6.53;1.80;;;0.00;99.90;;;;;;5137455;27;20521;-80
2023/03/15 06:15:26;;;;;;;11.60;2.08;;;1.00;99.90;;;;;;5137733;27;20051;-81
2023/03/15 06:17:51;;;;;;;5.80;1.33;;;0.10;99.90;;;;;;5120625;27;20043;-82
2023/03/15 06:20:17;;;;;;;5.25;1.55;;;0.10;99.90;;;;;;5137473;27;20042;-82
2023/03/15 06:22:44;;;;;;;8.23;1.97;;;0.20;99.90;;;;;;5120500;27;20047;-81
2023/03/15 06:25:10;;;;;;;5.43;1.57;;;0.20;99.90;;;;;;5136775;27;20397;-82
2023/03/15 06:27:36;;;;;;;5.30;1.60;;;0.30;99.90;;;;;;5155690;27;20470;-81
2023/03/15 06:30:03;;;;;;;8.43;1.48;;;0.20;99.90;;;;;;5137174;27;20046;-81
2023/03/15 06:32:28;;;;;;;4.95;1.67;;;0.40;99.90;;;;;;5137440;27;20049;-81
2023/03/15 06:34:54;;;;;;;3.95;1.90;;;0.50;99.90;;;;;;5120260;27;20039;-82
2023/03/15 06:37:20;;;;;;;5.75;1.95;;;0.50;99.90;;;;;;5137215;27;20038;-81
2023/03/15 06:39:46;;;;;;;3.58;1.65;;;0.50;99.90;;;;;;5155236;27;20546;-81
2023/03/15 06:42:12;;;;;;;4.68;1.60;;;0.50;99.90;;;;;;5155530;27;20047;-81
2023/03/15 06:44:42;;;;;;;3.00;1.48;;;0.60;99.90;;;;;;5120364;27;20118;-81
2023/03/15 06:47:09;;;;;;;7.25;2.35;;;0.60;99.90;;;;;;5136891;27;20482;-82
2023/03/15 06:49:35;;;;;;;;;;;0.60;99.90;;;;;;5137617;27;20078;-82
2023/03/15 06:52:01;;;;;;;3.35;1.58;;;0.60;99.90;;;;;;5136720;27;19926;-82
2023/03/15 06:54:27;;;;;;;8.70;1.95;;;0.80;99.90;;;;;;5137058;27;20117;-81
2023/03/15 06:56:53;;;;;;;9.25;1.75;;;1.00;99.90;;;;;;5155368;27;20078;-82
2023/03/15 06:59:18;;;;;;;4.15;1.70;;;0.60;99.90;;;;;;5155519;27;20378;-81
2023/03/15 07:01:47;;;;;;;7.50;1.40;;;0.60;99.90;;;;;;5155344;27;20034;-82
2023/03/15 07:04:13;;;;;;;5.90;1.67;;;0.60;99.90;;;;;;5137099;27;20129;-82
2023/03/15 07:06:39;;;;;;;9.50;1.75;;;0.70;99.90;;;;;;5155337;27;20130;-81
2023/03/15 07:09:05;;;;;;;7.70;1.60;;;0.70;99.90;;;;;;5136838;27;20465;-83
2023/03/15 07:11:31;;;;;;;10.98;1.88;;;0.80;99.90;;;;;;5155183;27;20050;-81
2023/03/15 07:13:57;;;;;;;9.80;1.77;;;1.10;99.90;;;;;;5155252;27;20097;-82
2023/03/15 07:16:23;;;;;;;8.60;2.07;;;0.90;99.90;;;;;;5120299;27;20043;-81
2023/03/15 07:18:49;;;;;;;3.87;1.40;;;1.00;99.90;;;;;;5155133;27;20077;-82
2023/03/15 07:21:15;;;;;;;9.50;1.70;;;1.10;99.90;;;;;;5137177;27;20316;-81
2023/03/15 07:23:40;;;;;;;2.42;1.45;;;1.20;99.90;;;;;;5136893;27;20095;-82
2023/03/15 07:26:06;;;;;;;4.82;1.63;;;1.30;99.90;;;;;;5155628;27;20359;-82
2023/03/15 07:28:32;;;;;;;2.90;1.52;;;1.50;99.90;;;;;;5137411;27;20413;-81
2023/03/15 07:31:00;;;;;;;9.70;1.85;;;1.60;99.90;;;;;;5136778;27;20081;-81
2023/03/15 07:33:27;;;;;;;9.95;1.73;;;2.20;99.90;;;;;;5119650;27;20054;-81
2023/03/15 07:35:54;;;;;;;9.93;1.60;;;1.80;99.90;;;;;;5155289;27;20043;-81
2023/03/15 07:38:21;;;;;;;6.38;1.67;;;1.90;99.90;;;;;;5140751;27;20474;-81
2023/03/15 07:40:47;;;;;;;5.72;1.48;;;2.00;99.90;;;;;;5140776;27;20042;-81
2023/03/15 07:43:12;;;;;;;8.15;1.85;;;2.10;99.90;;;;;;5158904;27;20042;-81
2023/03/15 07:45:38;;;;;;;3.90;1.15;;;2.20;99.90;;;;;;5158889;27;20050;-81
2023/03/15 07:48:04;;;;;;;5.50;1.40;;;2.30;99.90;;;;;;5158745;27;20046;-81
2023/03/15 07:50:30;;;;;;;8.30;1.75;;;2.40;99.90;;;;;;5139929;27;20050;-82
2023/03/15 07:52:57;;;;;;;2.55;1.33;;;2.50;99.90;;;;;;5158638;27;20107;-82
2023/03/15 07:55:24;;;;;;;6.07;1.70;;;2.60;99.90;;;;;;5158668;27;20051;-81
2023/03/15 07:57:50;;;;;;;8.23;2.33;;;2.70;99.90;;;;;;5140299;27;20072;-81
2023/03/15 08:00:17;;;;;;;7.15;1.50;;;2.80;99.90;;;;;;5158620;27;20517;-81
2023/03/15 08:02:43;;;;;;;3.60;1.60;;;2.90;99.90;;;;;;5123453;27;20090;-81
2023/03/15 08:05:09;;;;;;;4.00;1.60;;;3.00;99.90;;;;;;5158522;27;20038;-81
2023/03/15 08:07:36;;;;;;;5.78;1.40;;;3.20;99.90;;;;;;5158407;27;20043;-82
2023/03/15 08:10:04;;;;;;;9.07;2.10;;;3.10;99.90;;;;;;5139612;27;20038;-82
2023/03/15 08:12:30;;;;;;;6.03;1.73;;;3.30;99.90;;;;;;5123034;27;20061;-82
2023/03/15 08:14:55;;;;;;;7.30;1.80;;;3.30;99.90;;;;;;5158584;27;20043;-81
2023/03/15 08:17:21;;;;;;;5.93;1.42;;;3.40;99.90;;;;;;5158462;27;20466;-82
2023/03/15 08:19:47;;;;;;;2.70;1.58;;;3.50;99.90;;;;;;5140018;27;20054;-82
2023/03/15 08:22:12;;;;;;;10.32;1.80;;;3.60;99.90;;;;;;5158121;27;20095;-82
2023/03/15 08:24:38;;;;;;;8.75;1.60;;;4.70;99.90;;;;;;5158126;27;20046;-82
2023/03/15 08:27:04;;;;;;;7.43;1.88;;;3.80;99.90;;;;;;5158059;27;20046;-81
2023/03/15 08:29:30;;;;;;;3.88;1.48;;;3.90;99.90;;;;;;5139798;27;20509;-82
2023/03/15 08:31:56;;;;;;;6.15;2.05;;;4.00;99.90;;;;;;5157921;27;20094;-82
2023/03/15 08:34:22;;;;;;;7.03;1.65;;;4.10;99.90;;;;;;5157918;27;20393;-82
2023/03/15 08:36:48;;;;;;;4.35;1.73;;;4.20;99.90;;;;;;5139322;27;20043;-82
2023/03/15 08:39:13;;;;;;;5.78;1.83;;;4.30;99.90;;;;;;5139545;27;20122;-82
2023/03/15 08:41:39;;;;;;;5.75;1.60;;;4.40;99.90;;;;;;5122637;27;20482;-83
2023/03/15 08:44:05;;;;;;;6.73;2.43;;;4.50;99.90;;;;;;5139696;27;20070;-82
2023/03/15 08:46:32;;;;;;;5.47;1.90;;;4.70;99.90;;;;;;5138937;27;20806;-82
2023/03/15 08:48:58;;;;;;;7.43;1.90;;;4.80;99.90;;;;;;5157312;27;20121;-82
2023/03/15 08:51:25;;;;;;;9.40;1.58;;;4.80;99.90;;;;;;5157318;27;20379;-81
2023/03/15 08:53:51;;;;;;;;;;;4.80;99.90;;;;;;5157903;27;20134;-82
2023/03/15 08:56:16;;;;;;;8.40;1.83;;;4.90;99.90;;;;;;5157543;27;19966;-81
2023/03/15 08:58:42;;;;;;;9.23;2.28;;;5.00;99.90;;;;;;5122050;27;20077;-82
2023/03/15 09:01:13;;;;;;;6.43;1.60;;;5.10;99.90;;;;;;5157110;27;20485;-83
2023/03/15 09:03:41;;;;;;;7.88;1.67;;;5.20;99.90;;;;;;5157514;27;20034;-82
2023/03/15 09:06:08;;;;;;;7.95;2.60;;;5.30;99.90;;;;;;5138993;27;20401;-82
2023/03/15 09:08:34;;;;;;;9.98;1.80;;;5.40;99.90;;;;;;5139122;27;20047;-82
2023/03/15 09:11:00;;;;;;;6.03;1.55;;;5.50;99.90;;;;;;5156909;27;20535;-82
2023/03/15 09:13:26;;;;;;;4.57;1.60;;;5.60;99.90;;;;;;5157318;27;20049;-82
2023/03/15 09:15:53;;;;;;;5.63;2.10;;;5.70;99.90;;;;;;5138625;27;20050;-82
2023/03/15 09:18:20;;;;;;;2.55;1.48;;;5.70;99.90;;;;;;5138785;27;20402;-81
2023/03/15 09:20:46;;;;;;;4.97;2.38;;;5.70;99.90;;;;;;5138505;27;20042;-82
2023/03/15 09:23:13;;;;;;;11.23;2.00;;;5.70;99.90;;;;;;5156975;27;20125;-83
2023/03/15 09:25:38;;;;;;;10.10;2.03;;;6.00;99.90;;;;;;5138438;27;20042;-82
2023/03/15 09:28:07;;;;;;;5.15;1.75;;;5.70;99.90;;;;;;5138600;27;20046;-82
2023/03/15 09:30:34;;;;;;;7.15;2.20;;;5.60;99.90;;;;;;5156707;27;20129;-82
2023/03/15 09:32:59;;;;;;;7.68;2.10;;;5.60;99.90;;;;;;5156780;27;20042;-81
2023/03/15 09:35:25;;;;;;;8.55;1.80;;;5.40;99.90;;;;;;5138171;27;20091;-82
2023/03/15 09:37:51;;;;;;;5.75;1.75;;;5.40;99.90;;;;;;5156733;27;20038;-81
2023/03/15 09:40:18;;;;;;;5.50;1.92;;;5.60;99.90;;;;;;5156652;27;20035;-81
2023/03/15 09:42:50;;;;;;;3.17;1.85;;;5.70;99.90;;;;;;5156577;27;20125;-83
2023/03/15 09:45:34;;;;;;;4.50;1.30;;;5.90;99.90;;;;;;5156775;27;20444;-82
2023/03/15 09:48:08;;;;;;;5.57;1.50;;;5.90;99.90;;;;;;5138232;27;20092;-83
2023/03/15 09:50:49;;;;;;;4.43;2.05;;;5.70;99.90;;;;;;5137525;27;20125;-82
2023/03/15 09:53:27;;;;;;;5.50;1.52;;;5.60;99.90;;;;;;5156301;27;20397;-82
2023/03/15 09:55:53;;;;;;;7.13;1.67;;;5.60;99.90;;;;;;5137987;27;20038;-82
2023/03/15 09:58:33;;;;;;;5.80;1.73;;;5.70;99.90;;;;;;5155854;27;20042;-82
2023/03/15 10:01:03;;;;;;;5.85;1.20;;;5.80;99.90;;;;;;5138252;27;20133;-82
2023/03/15 10:03:42;;;;;;;6.32;2.05;;;6.00;99.90;;;;;;5156140;27;20082;-81
2023/03/15 10:06:33;;;;;;;6.00;1.88;;;6.20;99.90;;;;;;5156212;27;20125;-82
2023/03/15 10:09:02;;;;;;;9.43;2.00;;;6.70;99.90;;;;;;5156048;27;20046;-81
2023/03/15 10:11:39;;;;;;;8.07;1.23;;;6.00;99.90;;;;;;5156096;27;20065;-81
2023/03/15 10:14:26;;;;;;;5.20;2.10;;;6.10;99.90;;;;;;5156313;27;20099;-82
2023/03/15 10:16:52;;;;;;;5.20;1.50;;;6.30;99.90;;;;;;5156016;27;20051;-81
2023/03/15 10:19:50;;;;;;;2.53;1.33;;;6.50;99.90;;;;;;5137727;27;20057;-81
2023/03/15 10:22:32;;;;;;;5.27;1.40;;;6.60;99.90;;;;;;5138062;27;20046;-82
2023/03/15 10:25:13;;;;;;;6.47;1.50;;;6.70;99.90;;;;;;5156071;27;20047;-82
2023/03/15 10:27:52;;;;;;;2.92;1.25;;;6.60;99.90;;;;;;5155697;27;20051;-81
2023/03/15 10:30:24;;;;;;;5.05;1.30;;;6.60;99.90;;;;;;5155744;27;20054;-83
2023/03/15 10:33:27;;;;;;;4.68;1.60;;;6.50;99.90;;;;;;5155608;27;20046;-81
2023/03/15 10:35:53;;;;;;;8.05;1.77;;;6.60;99.90;;;;;;5155640;27;20047;-81
2023/03/15 10:38:21;;;;;;;6.13;1.35;;;6.80;99.90;;;;;;5155631;27;20367;-83
2023/03/15 10:40:52;;;;;;;4.25;1.25;;;6.90;99.90;;;;;;5155568;27;20081;-82
2023/03/15 10:43:21;;;;;;;3.92;1.42;;;7.00;99.90;;;;;;5137853;27;20046;-81
2023/03/15 10:46:02;;;;;;;2.05;1.35;;;7.00;99.90;;;;;;5137030;27;20465;-81
2023/03/15 10:48:57;;;;;;;3.47;1.70;;;7.10;99.90;;;;;;5137128;27;20054;-81
2023/03/15 10:51:27;;;;;;;4.25;1.50;;;7.30;99.90;;;;;;5155387;27;20058;-81
2023/03/15 10:54:21;;;;;;;7.22;1.40;;;7.40;99.90;;;;;;5137387;27;20046;-81
2023/03/15 10:57:14;;;;;;;3.50;1.27;;;7.50;99.90;;;;;;5137429;27;20055;-81
2023/03/15 10:59:58;;;;;;;5.55;1.50;;;7.50;99.90;;;;;;5138853;27;20039;-81
2023/03/15 11:02:25;;;;;;;3.28;1.17;;;7.40;99.90;;;;;;5155611;27;20041;-83
2023/03/15 11:05:09;;;;;;;5.95;1.50;;;7.40;99.90;;;;;;5155335;27;20034;-81
2023/03/15 11:07:35;;;;;;;3.67;1.48;;;7.50;99.90;;;;;;5155348;27;20395;-81
2023/03/15 11:10:04;;;;;;;2.90;1.40;;;7.90;99.90;;;;;;5155728;27;20526;-81
2023/03/15 11:12:33;;;;;;;3.30;1.40;;;7.60;99.90;;;;;;5159432;27;20042;-81
2023/03/15 11:15:04;;;;;;;4.70;1.50;;;7.60;99.90;;;;;;5159578;27;20047;-81
2023/03/15 11:17:35;;;;;;;3.30;1.35;;;7.50;99.90;;;;;;5141090;27;20038;-82
2023/03/15 11:20:17;;;;;;;4.03;1.30;;;7.40;99.90;;;;;;5140959;27;20122;-82
2023/03/15 11:22:43;;;;;;;4.60;1.52;;;7.20;99.90;;;;;;5141358;27;20054;-81
2023/03/15 11:25:14;;;;;;;4.30;1.10;;;7.20;99.90;;;;;;5159316;27;20081;-81
2023/03/15 11:27:42;;;;;;;3.50;1.20;;;7.10;99.90;;;;;;5159280;27;20046;-81
2023/03/15 11:30:16;;;;;;;5.65;1.25;;;7.10;99.90;;;;;;5159139;27;20062;-82
2023/03/15 11:32:43;;;;;;;5.53;1.67;;;7.40;99.90;;;;;;5159092;27;20047;-82
2023/03/15 11:35:19;;;;;;;2.05;1.30;;;7.60;99.90;;;;;;5140612;27;20047;-81
2023/03/15 11:37:46;;;;;;;6.90;1.60;;;7.70;99.90;;;;;;5159391;27;20054;-81
2023/03/15 11:40:28;;;;;;;6.45;1.52;;;7.60;99.90;;;;;;5159014;27;20129;-82
2023/03/15 11:42:58;;;;;;;9.52;2.67;;;7.50;99.90;;;;;;5158967;27;20043;-81
2023/03/15 11:45:49;;;;;;;3.47;1.30;;;7.60;99.90;;;;;;5159319;27;20049;-81
2023/03/15 11:48:35;;;;;;;5.80;1.90;;;7.70;99.90;;;;;;5158843;27;20077;-81
2023/03/15 11:51:01;;;;;;;2.80;1.00;;;7.80;99.90;;;;;;5158670;27;20051;-81
2023/03/15 11:53:35;;;;;;;4.83;1.60;;;7.80;99.90;;;;;;5158839;27;20050;-81
2023/03/15 11:56:19;;;;;;;9.50;1.35;;;7.80;99.90;;;;;;5159383;27;20600;-82
2023/03/15 11:59:00;;;;;;;5.75;1.30;;;7.70;99.90;;;;;;5140504;27;20053;-81
2023/03/15 12:01:26;;;;;;;1.92;1.00;;;8.00;99.90;;;;;;5140295;27;20053;-81
2023/03/15 12:04:24;;;;;;;4.65;1.10;;;8.10;99.90;;;;;;5140016;27;20063;-80
2023/03/15 12:06:54;;;;;;;4.85;1.55;;;8.20;99.90;;;;;;5158862;27;20057;-80
2023/03/15 12:09:31;;;;;;;5.03;1.70;;;8.50;99.90;;;;;;5158364;27;20038;-81
2023/03/15 12:12:05;;;;;;;4.95;1.40;;;8.70;99.90;;;;;;5140238;27;20534;-80
2023/03/15 12:14:31;;;;;;;3.22;1.50;;;8.20;99.90;;;;;;5158856;27;20047;-80
2023/03/15 12:17:22;;;;;;;3.50;1.40;;;8.40;99.90;;;;;;5123098;27;20501;-80
2023/03/15 12:19:58;;;;;;;2.65;1.20;;;8.50;99.90;;;;;;5139570;27;20039;-80
2023/03/15 12:22:30;;;;;;;1.42;0.98;;;8.50;99.90;;;;;;5139178;27;20035;-82
2023/03/15 12:25:03;;;;;;;1.67;1.10;;;8.50;99.90;;;;;;5139881;27;20042;-81
2023/03/15 12:27:28;;;;;;;2.53;1.20;;;8.50;99.90;;;;;;5158230;27;20490;-81
2023/03/15 12:30:00;;;;;;;3.40;1.10;;;8.60;99.90;;;;;;5158035;27;20041;-81
2023/03/15 12:32:28;;;;;;;3.70;1.10;;;8.70;99.90;;;;;;5158061;27;20122;-80
2023/03/15 12:35:07;;;;;;;2.83;1.08;;;8.80;99.90;;;;;;5158099;27;20076;-81
2023/03/15 12:37:50;;;;;;;4.15;1.20;;;8.90;99.90;;;;;;5158471;27;20042;-80
2023/03/15 12:40:21;;;;;;;4.53;1.55;;;9.20;99.90;;;;;;5157792;27;20050;-81
2023/03/15 12:42:47;;;;;;;2.45;1.40;;;9.20;99.90;;;;;;5139670;27;20043;-81
2023/03/15 12:45:15;;;;;;;3.50;1.40;;;9.40;99.90;;;;;;5157449;27;20130;-81
2023/03/15 12:47:50;;;;;;;6.18;1.33;;;9.30;99.90;;;;;;5139310;27;20039;-81
2023/03/15 12:50:34;;;;;;;3.88;1.30;;;9.20;99.90;;;;;;5157814;27;20046;-81
2023/03/15 12:53:02;;;;;;;4.53;1.17;;;9.00;99.90;;;;;;5157673;27;20062;-81
2023/03/15 12:55:31;;;;;;;3.63;1.20;;;9.00;99.90;;;;;;5157640;27;20047;-81
2023/03/15 12:57:58;;;;;;;3.53;1.30;;;9.10;99.90;;;;;;5139253;27;20046;-81
2023/03/15 13:00:30;;;;;;;2.40;1.20;;;9.20;99.90;;;;;;5157450;27;20053;-81
2023/03/15 13:03:10;;;;;;;2.70;1.25;;;9.30;99.90;;;;;;5157784;27;20039;-81
2023/03/15 13:06:13;;;;;;;3.35;1.30;;;9.30;99.90;;;;;;5157315;27;20038;-81
2023/03/15 13:09:03;;;;;;;3.92;1.23;;;9.30;99.90;;;;;;5157083;27;20093;-81